sensor_id;sensor_type;location;lat;lon;timestamp;P1;durP1;ratioP1;P2;durP2;ratioP2
45548;SDS011;31270;48.328;10.096;2023-08-12T00:01:03;11.75;;;9.68;;
45548;SDS011;31270;48.328;10.096;2023-08-12T00:03:28;10.48;;;9.40;;
45548;SDS011;31270;48.328;10.096;2023-08-12T00:05:54;12.20;;;9.60;;
45548;SDS011;31270;48.328;10.096;2023-08-12T00:08:21;10.43;;;9.35;;
45548;SDS011;31270;48.328;10.096;2023-08-12T00:10:47;14.88;;;10.43;;
45548;SDS011;31270;48.328;10.096;2023-08-12T00:13:12;13.60;;;11.00;;
45548;SDS011;31270;48.328;10.096;2023-08-12T00:15:42;12.43;;;10.77;;
45548;SDS011;31270;48.328;10.096;2023-08-12T00:18:08;16.23;;;10.57;;
45548;SDS011;31270;48.328;10.096;2023-08-12T00:20:34;11.10;;;9.90;;
45548;SDS011;31270;48.328;10.096;2023-08-12T00:23:00;12.88;;;10.48;;
45548;SDS011;31270;48.328;10.096;2023-08-12T00:25:25;11.68;;;10.27;;
45548;SDS011;31270;48.328;10.096;2023-08-12T00:27:51;14.25;;;10.98;;
45548;SDS011;31270;48.328;10.096;2023-08-12T00:30:17;12.57;;;9.73;;
45548;SDS011;31270;48.328;10.096;2023-08-12T00:32:43;15.10;;;10.30;;
45548;SDS011;31270;48.328;10.096;2023-08-12T00:35:08;16.40;;;10.40;;
45548;SDS011;31270;48.328;10.096;2023-08-12T00:37:34;13.77;;;10.60;;
45548;SDS011;31270;48.328;10.096;2023-08-12T00:40:00;12.57;;;10.15;;
45548;SDS011;31270;48.328;10.096;2023-08-12T00:42:25;11.60;;;10.35;;
45548;SDS011;31270;48.328;10.096;2023-08-12T00:44:51;13.55;;;11.38;;
45548;SDS011;31270;48.328;10.096;2023-08-12T00:47:17;12.70;;;9.77;;
45548;SDS011;31270;48.328;10.096;2023-08-12T00:49:42;14.27;;;10.20;;
45548;SDS011;31270;48.328;10.096;2023-08-12T00:52:11;14.73;;;10.15;;
45548;SDS011;31270;48.328;10.096;2023-08-12T00:54:37;15.02;;;11.50;;
45548;SDS011;31270;48.328;10.096;2023-08-12T00:57:03;14.95;;;11.57;;
45548;SDS011;31270;48.328;10.096;2023-08-12T00:59:31;14.80;;;12.32;;
45548;SDS011;31270;48.328;10.096;2023-08-12T01:01:59;16.75;;;11.68;;
45548;SDS011;31270;48.328;10.096;2023-08-12T01:04:26;14.77;;;11.60;;
45548;SDS011;31270;48.328;10.096;2023-08-12T01:06:52;15.68;;;11.77;;
45548;SDS011;31270;48.328;10.096;2023-08-12T01:09:17;16.45;;;11.57;;
45548;SDS011;31270;48.328;10.096;2023-08-12T01:17:04;15.38;;;11.65;;
45548;SDS011;31270;48.328;10.096;2023-08-12T01:19:35;13.57;;;11.15;;
45548;SDS011;31270;48.328;10.096;2023-08-12T01:22:03;15.90;;;12.20;;
45548;SDS011;31270;48.328;10.096;2023-08-12T01:24:36;14.18;;;11.30;;
45548;SDS011;31270;48.328;10.096;2023-08-12T01:27:04;14.95;;;12.05;;
45548;SDS011;31270;48.328;10.096;2023-08-12T01:29:34;14.88;;;11.43;;
45548;SDS011;31270;48.328;10.096;2023-08-12T01:35:00;16.40;;;12.52;;
45548;SDS011;31270;48.328;10.096;2023-08-12T01:37:28;15.55;;;11.95;;
45548;SDS011;31270;48.328;10.096;2023-08-12T01:39:55;13.23;;;11.82;;
45548;SDS011;31270;48.328;10.096;2023-08-12T01:42:23;17.88;;;12.82;;
45548;SDS011;31270;48.328;10.096;2023-08-12T01:44:50;14.48;;;12.38;;
45548;SDS011;31270;48.328;10.096;2023-08-12T01:47:15;17.98;;;12.25;;
45548;SDS011;31270;48.328;10.096;2023-08-12T01:49:41;15.60;;;12.75;;
45548;SDS011;31270;48.328;10.096;2023-08-12T01:52:06;20.27;;;12.40;;
45548;SDS011;31270;48.328;10.096;2023-08-12T01:54:33;15.23;;;11.88;;
45548;SDS011;31270;48.328;10.096;2023-08-12T01:57:05;13.80;;;12.05;;
45548;SDS011;31270;48.328;10.096;2023-08-12T01:59:33;17.58;;;12.10;;
45548;SDS011;31270;48.328;10.096;2023-08-12T02:02:01;18.20;;;13.25;;
45548;SDS011;31270;48.328;10.096;2023-08-12T02:04:27;16.73;;;12.25;;
45548;SDS011;31270;48.328;10.096;2023-08-12T02:06:54;18.42;;;12.35;;
45548;SDS011;31270;48.328;10.096;2023-08-12T02:09:20;14.38;;;11.85;;
45548;SDS011;31270;48.328;10.096;2023-08-12T02:11:46;15.25;;;12.82;;
45548;SDS011;31270;48.328;10.096;2023-08-12T02:14:11;13.27;;;11.63;;
45548;SDS011;31270;48.328;10.096;2023-08-12T02:16:37;16.85;;;12.00;;
45548;SDS011;31270;48.328;10.096;2023-08-12T02:19:03;16.45;;;12.60;;
45548;SDS011;31270;48.328;10.096;2023-08-12T02:21:28;17.20;;;12.98;;
45548;SDS011;31270;48.328;10.096;2023-08-12T02:23:54;14.82;;;11.52;;
45548;SDS011;31270;48.328;10.096;2023-08-12T02:26:20;15.98;;;12.43;;
45548;SDS011;31270;48.328;10.096;2023-08-12T02:28:45;16.90;;;12.68;;
45548;SDS011;31270;48.328;10.096;2023-08-12T02:31:11;20.65;;;12.50;;
45548;SDS011;31270;48.328;10.096;2023-08-12T02:33:37;16.85;;;11.95;;
45548;SDS011;31270;48.328;10.096;2023-08-12T02:36:03;16.73;;;12.80;;
45548;SDS011;31270;48.328;10.096;2023-08-12T02:38:29;18.38;;;13.15;;
45548;SDS011;31270;48.328;10.096;2023-08-12T02:40:54;15.70;;;12.15;;
45548;SDS011;31270;48.328;10.096;2023-08-12T02:43:20;17.90;;;13.45;;
45548;SDS011;31270;48.328;10.096;2023-08-12T02:45:46;17.73;;;12.90;;
45548;SDS011;31270;48.328;10.096;2023-08-12T02:48:12;14.80;;;12.60;;
45548;SDS011;31270;48.328;10.096;2023-08-12T02:50:40;19.63;;;13.55;;
45548;SDS011;31270;48.328;10.096;2023-08-12T02:53:06;16.48;;;13.05;;
45548;SDS011;31270;48.328;10.096;2023-08-12T02:55:33;17.60;;;13.65;;
45548;SDS011;31270;48.328;10.096;2023-08-12T02:57:59;16.23;;;13.52;;
45548;SDS011;31270;48.328;10.096;2023-08-12T03:00:25;16.05;;;13.40;;
45548;SDS011;31270;48.328;10.096;2023-08-12T03:02:51;16.13;;;13.07;;
45548;SDS011;31270;48.328;10.096;2023-08-12T03:05:17;15.75;;;12.60;;
45548;SDS011;31270;48.328;10.096;2023-08-12T03:07:42;17.05;;;12.82;;
45548;SDS011;31270;48.328;10.096;2023-08-12T03:10:08;16.08;;;12.65;;
45548;SDS011;31270;48.328;10.096;2023-08-12T03:12:34;14.85;;;11.35;;
45548;SDS011;31270;48.328;10.096;2023-08-12T03:15:00;14.48;;;12.35;;
45548;SDS011;31270;48.328;10.096;2023-08-12T03:17:26;13.65;;;11.95;;
45548;SDS011;31270;48.328;10.096;2023-08-12T03:19:52;15.70;;;12.02;;
45548;SDS011;31270;48.328;10.096;2023-08-12T03:22:19;14.43;;;11.65;;
45548;SDS011;31270;48.328;10.096;2023-08-12T03:24:45;14.90;;;12.43;;
45548;SDS011;31270;48.328;10.096;2023-08-12T03:27:11;13.30;;;11.55;;
45548;SDS011;31270;48.328;10.096;2023-08-12T03:29:36;12.77;;;11.43;;
45548;SDS011;31270;48.328;10.096;2023-08-12T03:32:02;14.02;;;11.95;;
45548;SDS011;31270;48.328;10.096;2023-08-12T03:34:28;19.63;;;12.43;;
45548;SDS011;31270;48.328;10.096;2023-08-12T03:36:57;15.10;;;12.20;;
45548;SDS011;31270;48.328;10.096;2023-08-12T03:39:22;13.75;;;11.63;;
45548;SDS011;31270;48.328;10.096;2023-08-12T03:41:48;12.43;;;11.18;;
45548;SDS011;31270;48.328;10.096;2023-08-12T03:44:15;14.57;;;11.70;;
45548;SDS011;31270;48.328;10.096;2023-08-12T03:46:41;14.65;;;10.95;;
45548;SDS011;31270;48.328;10.096;2023-08-12T03:49:07;15.50;;;11.48;;
45548;SDS011;31270;48.328;10.096;2023-08-12T03:51:32;13.05;;;11.15;;
45548;SDS011;31270;48.328;10.096;2023-08-12T03:53:58;13.45;;;11.68;;
45548;SDS011;31270;48.328;10.096;2023-08-12T03:56:24;16.48;;;12.18;;
45548;SDS011;31270;48.328;10.096;2023-08-12T03:58:50;13.80;;;12.00;;
45548;SDS011;31270;48.328;10.096;2023-08-12T04:01:16;13.18;;;11.60;;
45548;SDS011;31270;48.328;10.096;2023-08-12T04:03:42;14.02;;;12.00;;
45548;SDS011;31270;48.328;10.096;2023-08-12T04:06:07;13.05;;;11.05;;
45548;SDS011;31270;48.328;10.096;2023-08-12T04:08:33;13.85;;;10.85;;
45548;SDS011;31270;48.328;10.096;2023-08-12T04:10:59;16.02;;;12.13;;
45548;SDS011;31270;48.328;10.096;2023-08-12T04:13:25;14.88;;;11.05;;
45548;SDS011;31270;48.328;10.096;2023-08-12T04:15:51;12.82;;;10.90;;
45548;SDS011;31270;48.328;10.096;2023-08-12T04:18:18;14.35;;;11.98;;
45548;SDS011;31270;48.328;10.096;2023-08-12T04:20:45;15.18;;;13.20;;
45548;SDS011;31270;48.328;10.096;2023-08-12T04:23:12;14.00;;;11.60;;
45548;SDS011;31270;48.328;10.096;2023-08-12T04:25:37;16.08;;;11.80;;
45548;SDS011;31270;48.328;10.096;2023-08-12T04:28:03;16.23;;;12.30;;
45548;SDS011;31270;48.328;10.096;2023-08-12T04:30:29;16.27;;;11.77;;
45548;SDS011;31270;48.328;10.096;2023-08-12T04:32:54;13.30;;;11.35;;
45548;SDS011;31270;48.328;10.096;2023-08-12T04:35:20;18.80;;;11.85;;
45548;SDS011;31270;48.328;10.096;2023-08-12T04:37:45;13.63;;;11.40;;
45548;SDS011;31270;48.328;10.096;2023-08-12T04:40:11;17.08;;;11.23;;
45548;SDS011;31270;48.328;10.096;2023-08-12T04:42:37;11.63;;;10.43;;
45548;SDS011;31270;48.328;10.096;2023-08-12T04:45:02;13.30;;;10.48;;
45548;SDS011;31270;48.328;10.096;2023-08-12T04:47:29;12.98;;;10.90;;
45548;SDS011;31270;48.328;10.096;2023-08-12T04:49:54;14.02;;;11.02;;
45548;SDS011;31270;48.328;10.096;2023-08-12T04:52:20;13.25;;;11.02;;
45548;SDS011;31270;48.328;10.096;2023-08-12T04:54:46;13.38;;;11.15;;
45548;SDS011;31270;48.328;10.096;2023-08-12T04:57:11;12.60;;;10.90;;
45548;SDS011;31270;48.328;10.096;2023-08-12T04:59:37;12.32;;;10.85;;
45548;SDS011;31270;48.328;10.096;2023-08-12T05:02:03;18.17;;;11.57;;
45548;SDS011;31270;48.328;10.096;2023-08-12T05:04:28;12.00;;;10.70;;
45548;SDS011;31270;48.328;10.096;2023-08-12T05:06:54;12.32;;;11.02;;
45548;SDS011;31270;48.328;10.096;2023-08-12T05:09:20;14.27;;;10.95;;
45548;SDS011;31270;48.328;10.096;2023-08-12T05:11:46;13.50;;;10.80;;
45548;SDS011;31270;48.328;10.096;2023-08-12T05:14:11;12.70;;;10.25;;
45548;SDS011;31270;48.328;10.096;2023-08-12T05:16:37;10.80;;;9.50;;
45548;SDS011;31270;48.328;10.096;2023-08-12T05:19:03;11.65;;;10.30;;
45548;SDS011;31270;48.328;10.096;2023-08-12T05:21:28;13.02;;;10.00;;
45548;SDS011;31270;48.328;10.096;2023-08-12T05:23:54;11.48;;;10.27;;
45548;SDS011;31270;48.328;10.096;2023-08-12T05:26:20;11.60;;;10.07;;
45548;SDS011;31270;48.328;10.096;2023-08-12T05:28:46;14.65;;;12.05;;
45548;SDS011;31270;48.328;10.096;2023-08-12T05:31:11;13.85;;;11.18;;
45548;SDS011;31270;48.328;10.096;2023-08-12T05:33:37;12.95;;;10.93;;
45548;SDS011;31270;48.328;10.096;2023-08-12T05:36:03;13.60;;;11.77;;
45548;SDS011;31270;48.328;10.096;2023-08-12T05:38:29;14.48;;;11.25;;
45548;SDS011;31270;48.328;10.096;2023-08-12T05:40:54;19.40;;;11.07;;
45548;SDS011;31270;48.328;10.096;2023-08-12T05:43:20;12.98;;;11.13;;
45548;SDS011;31270;48.328;10.096;2023-08-12T05:45:45;14.50;;;11.25;;
45548;SDS011;31270;48.328;10.096;2023-08-12T05:48:12;11.30;;;10.13;;
45548;SDS011;31270;48.328;10.096;2023-08-12T05:50:38;13.60;;;11.05;;
45548;SDS011;31270;48.328;10.096;2023-08-12T05:53:03;14.73;;;10.93;;
45548;SDS011;31270;48.328;10.096;2023-08-12T05:55:29;14.93;;;10.77;;
45548;SDS011;31270;48.328;10.096;2023-08-12T05:57:54;14.05;;;11.63;;
45548;SDS011;31270;48.328;10.096;2023-08-12T06:00:20;19.05;;;11.60;;
45548;SDS011;31270;48.328;10.096;2023-08-12T06:02:46;15.75;;;12.07;;
45548;SDS011;31270;48.328;10.096;2023-08-12T06:05:11;13.90;;;11.32;;
45548;SDS011;31270;48.328;10.096;2023-08-12T06:07:37;16.83;;;12.23;;
45548;SDS011;31270;48.328;10.096;2023-08-12T06:10:03;12.95;;;11.55;;
45548;SDS011;31270;48.328;10.096;2023-08-12T06:12:30;13.70;;;11.82;;
45548;SDS011;31270;48.328;10.096;2023-08-12T06:14:56;16.58;;;11.85;;
45548;SDS011;31270;48.328;10.096;2023-08-12T06:17:21;12.45;;;10.90;;
45548;SDS011;31270;48.328;10.096;2023-08-12T06:19:47;16.90;;;11.38;;
45548;SDS011;31270;48.328;10.096;2023-08-12T06:22:13;14.45;;;11.45;;
45548;SDS011;31270;48.328;10.096;2023-08-12T06:24:38;13.48;;;10.95;;
45548;SDS011;31270;48.328;10.096;2023-08-12T06:27:04;12.77;;;11.35;;
45548;SDS011;31270;48.328;10.096;2023-08-12T06:29:30;15.55;;;11.82;;
45548;SDS011;31270;48.328;10.096;2023-08-12T06:31:56;12.75;;;11.50;;
45548;SDS011;31270;48.328;10.096;2023-08-12T06:34:21;13.07;;;11.63;;
45548;SDS011;31270;48.328;10.096;2023-08-12T06:36:47;12.60;;;11.35;;
45548;SDS011;31270;48.328;10.096;2023-08-12T06:39:12;16.10;;;11.80;;
45548;SDS011;31270;48.328;10.096;2023-08-12T06:41:38;12.82;;;11.23;;
45548;SDS011;31270;48.328;10.096;2023-08-12T06:44:04;13.38;;;11.07;;
45548;SDS011;31270;48.328;10.096;2023-08-12T06:46:30;15.30;;;11.98;;
45548;SDS011;31270;48.328;10.096;2023-08-12T06:48:56;15.55;;;11.93;;
45548;SDS011;31270;48.328;10.096;2023-08-12T06:51:22;14.20;;;12.00;;
45548;SDS011;31270;48.328;10.096;2023-08-12T06:53:48;18.20;;;12.05;;
45548;SDS011;31270;48.328;10.096;2023-08-12T06:56:13;13.30;;;11.80;;
45548;SDS011;31270;48.328;10.096;2023-08-12T06:58:39;12.73;;;11.43;;
45548;SDS011;31270;48.328;10.096;2023-08-12T07:01:04;15.35;;;11.80;;
45548;SDS011;31270;48.328;10.096;2023-08-12T07:03:30;13.50;;;11.20;;
45548;SDS011;31270;48.328;10.096;2023-08-12T07:05:56;13.68;;;10.90;;
45548;SDS011;31270;48.328;10.096;2023-08-12T07:08:21;14.70;;;12.57;;
45548;SDS011;31270;48.328;10.096;2023-08-12T07:10:47;14.45;;;11.95;;
45548;SDS011;31270;48.328;10.096;2023-08-12T07:13:13;16.67;;;13.40;;
45548;SDS011;31270;48.328;10.096;2023-08-12T07:15:39;14.25;;;12.05;;
45548;SDS011;31270;48.328;10.096;2023-08-12T07:18:04;15.45;;;12.27;;
45548;SDS011;31270;48.328;10.096;2023-08-12T07:20:30;15.25;;;13.13;;
45548;SDS011;31270;48.328;10.096;2023-08-12T07:22:56;14.40;;;12.13;;
45548;SDS011;31270;48.328;10.096;2023-08-12T07:25:21;14.18;;;12.38;;
45548;SDS011;31270;48.328;10.096;2023-08-12T07:27:47;15.57;;;12.52;;
45548;SDS011;31270;48.328;10.096;2023-08-12T07:30:13;13.05;;;11.50;;
45548;SDS011;31270;48.328;10.096;2023-08-12T07:32:39;14.23;;;11.98;;
45548;SDS011;31270;48.328;10.096;2023-08-12T07:35:05;12.98;;;11.48;;
45548;SDS011;31270;48.328;10.096;2023-08-12T07:37:31;13.35;;;11.63;;
45548;SDS011;31270;48.328;10.096;2023-08-12T07:39:57;13.50;;;11.45;;
45548;SDS011;31270;48.328;10.096;2023-08-12T07:42:23;14.18;;;11.30;;
45548;SDS011;31270;48.328;10.096;2023-08-12T07:44:48;13.98;;;10.95;;
45548;SDS011;31270;48.328;10.096;2023-08-12T07:47:14;13.27;;;11.27;;
45548;SDS011;31270;48.328;10.096;2023-08-12T07:49:40;10.55;;;9.32;;
45548;SDS011;31270;48.328;10.096;2023-08-12T07:52:06;10.30;;;8.90;;
45548;SDS011;31270;48.328;10.096;2023-08-12T07:54:32;11.20;;;9.93;;
45548;SDS011;31270;48.328;10.096;2023-08-12T07:56:57;9.43;;;8.48;;
45548;SDS011;31270;48.328;10.096;2023-08-12T07:59:23;14.00;;;9.52;;
45548;SDS011;31270;48.328;10.096;2023-08-12T08:01:48;12.38;;;8.80;;
45548;SDS011;31270;48.328;10.096;2023-08-12T08:04:14;10.10;;;9.10;;
45548;SDS011;31270;48.328;10.096;2023-08-12T08:06:40;9.18;;;8.38;;
45548;SDS011;31270;48.328;10.096;2023-08-12T08:09:06;10.32;;;8.85;;
45548;SDS011;31270;48.328;10.096;2023-08-12T08:11:31;12.52;;;8.68;;
45548;SDS011;31270;48.328;10.096;2023-08-12T08:13:57;11.27;;;8.38;;
45548;SDS011;31270;48.328;10.096;2023-08-12T08:16:23;11.90;;;8.48;;
45548;SDS011;31270;48.328;10.096;2023-08-12T08:18:49;12.32;;;7.80;;
45548;SDS011;31270;48.328;10.096;2023-08-12T08:21:15;13.35;;;7.38;;
45548;SDS011;31270;48.328;10.096;2023-08-12T08:23:41;8.52;;;7.05;;
45548;SDS011;31270;48.328;10.096;2023-08-12T08:26:08;7.68;;;6.95;;
45548;SDS011;31270;48.328;10.096;2023-08-12T08:28:34;7.47;;;6.78;;
45548;SDS011;31270;48.328;10.096;2023-08-12T08:30:59;7.90;;;7.15;;
45548;SDS011;31270;48.328;10.096;2023-08-12T08:33:25;7.15;;;6.43;;
45548;SDS011;31270;48.328;10.096;2023-08-12T08:35:51;8.23;;;6.15;;
45548;SDS011;31270;48.328;10.096;2023-08-12T08:38:17;8.05;;;6.60;;
45548;SDS011;31270;48.328;10.096;2023-08-12T08:40:43;6.55;;;5.65;;
45548;SDS011;31270;48.328;10.096;2023-08-12T08:43:08;6.85;;;6.03;;
45548;SDS011;31270;48.328;10.096;2023-08-12T08:45:36;22.38;;;7.75;;
45548;SDS011;31270;48.328;10.096;2023-08-12T08:48:02;8.27;;;6.15;;
45548;SDS011;31270;48.328;10.096;2023-08-12T08:50:30;6.63;;;6.03;;
45548;SDS011;31270;48.328;10.096;2023-08-12T08:52:56;6.45;;;5.72;;
45548;SDS011;31270;48.328;10.096;2023-08-12T08:55:22;6.50;;;5.75;;
45548;SDS011;31270;48.328;10.096;2023-08-12T08:57:48;6.28;;;5.53;;
45548;SDS011;31270;48.328;10.096;2023-08-12T09:00:15;6.45;;;5.85;;
45548;SDS011;31270;48.328;10.096;2023-08-12T09:02:42;6.07;;;5.40;;
45548;SDS011;31270;48.328;10.096;2023-08-12T09:05:10;5.93;;;5.38;;
45548;SDS011;31270;48.328;10.096;2023-08-12T09:07:38;6.85;;;5.70;;
45548;SDS011;31270;48.328;10.096;2023-08-12T09:10:05;5.90;;;5.30;;
45548;SDS011;31270;48.328;10.096;2023-08-12T09:12:33;5.75;;;4.95;;
45548;SDS011;31270;48.328;10.096;2023-08-12T09:14:59;6.55;;;5.03;;
45548;SDS011;31270;48.328;10.096;2023-08-12T09:17:24;6.07;;;5.47;;
45548;SDS011;31270;48.328;10.096;2023-08-12T09:19:51;6.30;;;5.15;;
45548;SDS011;31270;48.328;10.096;2023-08-12T09:22:17;6.88;;;5.22;;
45548;SDS011;31270;48.328;10.096;2023-08-12T09:24:43;6.95;;;5.25;;
45548;SDS011;31270;48.328;10.096;2023-08-12T09:27:09;6.50;;;5.40;;
45548;SDS011;31270;48.328;10.096;2023-08-12T09:29:35;5.55;;;5.10;;
45548;SDS011;31270;48.328;10.096;2023-08-12T09:32:17;7.03;;;5.75;;
45548;SDS011;31270;48.328;10.096;2023-08-12T09:34:47;7.03;;;5.63;;
45548;SDS011;31270;48.328;10.096;2023-08-12T09:37:15;6.80;;;5.10;;
45548;SDS011;31270;48.328;10.096;2023-08-12T09:39:41;9.68;;;5.68;;
45548;SDS011;31270;48.328;10.096;2023-08-12T09:42:07;5.68;;;5.18;;
45548;SDS011;31270;48.328;10.096;2023-08-12T09:44:37;6.03;;;5.53;;
45548;SDS011;31270;48.328;10.096;2023-08-12T09:47:03;7.38;;;5.43;;
45548;SDS011;31270;48.328;10.096;2023-08-12T09:49:29;5.95;;;5.45;;
45548;SDS011;31270;48.328;10.096;2023-08-12T09:51:55;6.82;;;5.43;;
45548;SDS011;31270;48.328;10.096;2023-08-12T09:54:21;7.45;;;5.82;;
45548;SDS011;31270;48.328;10.096;2023-08-12T09:56:47;9.57;;;5.72;;
45548;SDS011;31270;48.328;10.096;2023-08-12T09:59:18;6.05;;;5.45;;
45548;SDS011;31270;48.328;10.096;2023-08-12T10:01:47;7.57;;;5.80;;
45548;SDS011;31270;48.328;10.096;2023-08-12T10:04:14;7.32;;;5.60;;
45548;SDS011;31270;48.328;10.096;2023-08-12T10:06:43;5.47;;;4.95;;
45548;SDS011;31270;48.328;10.096;2023-08-12T10:09:09;5.70;;;5.10;;
45548;SDS011;31270;48.328;10.096;2023-08-12T10:11:36;7.38;;;5.35;;
45548;SDS011;31270;48.328;10.096;2023-08-12T10:14:02;5.50;;;5.00;;
45548;SDS011;31270;48.328;10.096;2023-08-12T10:16:29;9.95;;;6.03;;
45548;SDS011;31270;48.328;10.096;2023-08-12T10:18:55;6.55;;;5.82;;
45548;SDS011;31270;48.328;10.096;2023-08-12T10:21:22;7.78;;;5.82;;
45548;SDS011;31270;48.328;10.096;2023-08-12T10:23:48;7.35;;;5.97;;
45548;SDS011;31270;48.328;10.096;2023-08-12T10:26:15;5.30;;;4.80;;
45548;SDS011;31270;48.328;10.096;2023-08-12T10:28:43;6.85;;;5.90;;
45548;SDS011;31270;48.328;10.096;2023-08-12T10:31:10;6.18;;;5.55;;
45548;SDS011;31270;48.328;10.096;2023-08-12T10:33:37;6.25;;;5.35;;
45548;SDS011;31270;48.328;10.096;2023-08-12T10:36:04;7.05;;;5.45;;
45548;SDS011;31270;48.328;10.096;2023-08-12T10:38:31;5.78;;;5.25;;
45548;SDS011;31270;48.328;10.096;2023-08-12T10:43:54;5.75;;;5.15;;
45548;SDS011;31270;48.328;10.096;2023-08-12T10:49:06;5.50;;;5.03;;
45548;SDS011;31270;48.328;10.096;2023-08-12T10:51:39;7.68;;;4.72;;
45548;SDS011;31270;48.328;10.096;2023-08-12T11:02:18;6.10;;;4.80;;
45548;SDS011;31270;48.328;10.096;2023-08-12T11:04:54;6.45;;;4.20;;
45548;SDS011;31270;48.328;10.096;2023-08-12T11:10:16;6.10;;;4.03;;
45548;SDS011;31270;48.328;10.096;2023-08-12T11:18:18;4.20;;;3.72;;
45548;SDS011;31270;48.328;10.096;2023-08-12T11:20:45;6.07;;;4.13;;
45548;SDS011;31270;48.328;10.096;2023-08-12T11:23:13;3.97;;;3.08;;
45548;SDS011;31270;48.328;10.096;2023-08-12T11:25:39;4.38;;;3.97;;
45548;SDS011;31270;48.328;10.096;2023-08-12T11:28:07;5.00;;;4.00;;
45548;SDS011;31270;48.328;10.096;2023-08-12T11:30:33;3.70;;;3.30;;
45548;SDS011;31270;48.328;10.096;2023-08-12T11:33:00;6.18;;;3.80;;
45548;SDS011;31270;48.328;10.096;2023-08-12T11:35:26;5.75;;;4.05;;
45548;SDS011;31270;48.328;10.096;2023-08-12T11:37:52;9.32;;;4.38;;
45548;SDS011;31270;48.328;10.096;2023-08-12T11:40:20;6.30;;;4.32;;
45548;SDS011;31270;48.328;10.096;2023-08-12T11:42:47;4.57;;;3.85;;
45548;SDS011;31270;48.328;10.096;2023-08-12T11:45:15;6.55;;;4.22;;
45548;SDS011;31270;48.328;10.096;2023-08-12T11:47:45;5.15;;;4.65;;
45548;SDS011;31270;48.328;10.096;2023-08-12T11:50:21;4.95;;;4.45;;
45548;SDS011;31270;48.328;10.096;2023-08-12T11:52:52;5.20;;;4.70;;
45548;SDS011;31270;48.328;10.096;2023-08-12T11:55:18;6.82;;;4.90;;
45548;SDS011;31270;48.328;10.096;2023-08-12T11:57:44;4.82;;;4.43;;
45548;SDS011;31270;48.328;10.096;2023-08-12T12:00:11;4.97;;;4.50;;
45548;SDS011;31270;48.328;10.096;2023-08-12T12:02:41;4.72;;;4.30;;
45548;SDS011;31270;48.328;10.096;2023-08-12T12:05:29;5.05;;;4.55;;
45548;SDS011;31270;48.328;10.096;2023-08-12T12:07:55;5.65;;;4.60;;
45548;SDS011;31270;48.328;10.096;2023-08-12T12:10:25;5.30;;;4.80;;
45548;SDS011;31270;48.328;10.096;2023-08-12T12:12:54;6.60;;;4.85;;
45548;SDS011;31270;48.328;10.096;2023-08-12T12:15:20;4.97;;;4.53;;
45548;SDS011;31270;48.328;10.096;2023-08-12T12:17:49;5.70;;;4.95;;
45548;SDS011;31270;48.328;10.096;2023-08-12T12:20:16;8.27;;;4.95;;
45548;SDS011;31270;48.328;10.096;2023-08-12T12:22:42;8.98;;;4.63;;
45548;SDS011;31270;48.328;10.096;2023-08-12T12:25:10;4.78;;;4.28;;
45548;SDS011;31270;48.328;10.096;2023-08-12T12:27:37;4.38;;;3.97;;
45548;SDS011;31270;48.328;10.096;2023-08-12T12:30:08;4.55;;;4.13;;
45548;SDS011;31270;48.328;10.096;2023-08-12T12:32:36;5.85;;;4.80;;
45548;SDS011;31270;48.328;10.096;2023-08-12T12:35:02;5.70;;;4.53;;
45548;SDS011;31270;48.328;10.096;2023-08-12T12:37:32;6.35;;;4.70;;
45548;SDS011;31270;48.328;10.096;2023-08-12T12:39:58;5.47;;;4.13;;
45548;SDS011;31270;48.328;10.096;2023-08-12T12:42:24;5.35;;;4.85;;
45548;SDS011;31270;48.328;10.096;2023-08-12T12:44:49;5.00;;;4.45;;
45548;SDS011;31270;48.328;10.096;2023-08-12T12:47:15;5.38;;;4.72;;
45548;SDS011;31270;48.328;10.096;2023-08-12T12:49:41;6.50;;;4.35;;
45548;SDS011;31270;48.328;10.096;2023-08-12T12:52:07;7.03;;;4.28;;
45548;SDS011;31270;48.328;10.096;2023-08-12T12:54:32;4.88;;;4.00;;
45548;SDS011;31270;48.328;10.096;2023-08-12T12:56:58;5.80;;;4.22;;
45548;SDS011;31270;48.328;10.096;2023-08-12T12:59:24;5.20;;;4.20;;
45548;SDS011;31270;48.328;10.096;2023-08-12T13:01:49;5.60;;;4.20;;
45548;SDS011;31270;48.328;10.096;2023-08-12T13:04:15;4.78;;;4.30;;
45548;SDS011;31270;48.328;10.096;2023-08-12T13:06:41;6.30;;;4.32;;
45548;SDS011;31270;48.328;10.096;2023-08-12T13:09:06;7.93;;;4.72;;
45548;SDS011;31270;48.328;10.096;2023-08-12T13:11:33;6.05;;;4.70;;
45548;SDS011;31270;48.328;10.096;2023-08-12T13:14:02;6.10;;;4.55;;
45548;SDS011;31270;48.328;10.096;2023-08-12T13:16:29;6.82;;;3.78;;
45548;SDS011;31270;48.328;10.096;2023-08-12T13:18:55;3.40;;;3.10;;
45548;SDS011;31270;48.328;10.096;2023-08-12T13:21:23;4.07;;;3.38;;
45548;SDS011;31270;48.328;10.096;2023-08-12T13:23:49;4.28;;;3.35;;
45548;SDS011;31270;48.328;10.096;2023-08-12T13:26:15;4.40;;;3.53;;
45548;SDS011;31270;48.328;10.096;2023-08-12T13:28:41;3.80;;;3.50;;
45548;SDS011;31270;48.328;10.096;2023-08-12T13:31:06;4.30;;;3.90;;
45548;SDS011;31270;48.328;10.096;2023-08-12T13:33:33;4.07;;;3.50;;
45548;SDS011;31270;48.328;10.096;2023-08-12T13:35:59;4.22;;;3.78;;
45548;SDS011;31270;48.328;10.096;2023-08-12T13:38:24;6.47;;;3.95;;
45548;SDS011;31270;48.328;10.096;2023-08-12T13:40:50;8.43;;;4.95;;
45548;SDS011;31270;48.328;10.096;2023-08-12T13:43:16;6.95;;;4.07;;
45548;SDS011;31270;48.328;10.096;2023-08-12T13:45:41;6.35;;;3.90;;
45548;SDS011;31270;48.328;10.096;2023-08-12T13:48:07;6.28;;;4.90;;
45548;SDS011;31270;48.328;10.096;2023-08-12T13:50:32;4.70;;;3.90;;
45548;SDS011;31270;48.328;10.096;2023-08-12T13:52:58;7.70;;;4.38;;
45548;SDS011;31270;48.328;10.096;2023-08-12T13:55:25;6.95;;;4.47;;
45548;SDS011;31270;48.328;10.096;2023-08-12T13:57:51;4.80;;;4.30;;
45548;SDS011;31270;48.328;10.096;2023-08-12T14:00:17;5.75;;;4.10;;
45548;SDS011;31270;48.328;10.096;2023-08-12T14:02:43;4.40;;;3.65;;
45548;SDS011;31270;48.328;10.096;2023-08-12T14:05:09;4.95;;;3.72;;
45548;SDS011;31270;48.328;10.096;2023-08-12T14:07:36;3.97;;;3.58;;
45548;SDS011;31270;48.328;10.096;2023-08-12T14:10:02;4.68;;;3.55;;
45548;SDS011;31270;48.328;10.096;2023-08-12T14:12:28;4.20;;;3.80;;
45548;SDS011;31270;48.328;10.096;2023-08-12T14:14:54;6.93;;;3.35;;
45548;SDS011;31270;48.328;10.096;2023-08-12T14:17:19;6.72;;;3.88;;
45548;SDS011;31270;48.328;10.096;2023-08-12T14:19:48;6.85;;;3.80;;
45548;SDS011;31270;48.328;10.096;2023-08-12T14:22:14;3.88;;;3.55;;
45548;SDS011;31270;48.328;10.096;2023-08-12T14:24:40;4.28;;;3.47;;
45548;SDS011;31270;48.328;10.096;2023-08-12T14:27:06;4.05;;;3.35;;
45548;SDS011;31270;48.328;10.096;2023-08-12T14:29:31;5.07;;;3.70;;
45548;SDS011;31270;48.328;10.096;2023-08-12T14:31:57;3.75;;;3.20;;
45548;SDS011;31270;48.328;10.096;2023-08-12T14:34:23;5.22;;;2.72;;
45548;SDS011;31270;48.328;10.096;2023-08-12T14:36:49;6.38;;;3.10;;
45548;SDS011;31270;48.328;10.096;2023-08-12T14:39:14;5.55;;;3.00;;
45548;SDS011;31270;48.328;10.096;2023-08-12T14:41:40;3.92;;;3.20;;
45548;SDS011;31270;48.328;10.096;2023-08-12T14:44:06;7.10;;;3.47;;
45548;SDS011;31270;48.328;10.096;2023-08-12T14:46:31;6.57;;;3.22;;